createdAt,value
2019-02-06T00:00:34.008Z,82.8
2019-02-06T00:01:34.998Z,83.5
2019-02-06T00:02:34.972Z,83.8
2019-02-06T00:03:34.928Z,83.8
2019-02-06T00:04:34.883Z,84.1
2019-02-06T00:05:34.889Z,82.9
2019-02-06T00:06:35.344Z,81.4
2019-02-06T00:07:36.028Z,82.4
2019-02-06T00:08:36.721Z,83.1
2019-02-06T00:09:36.771Z,84
2019-02-06T00:10:36.778Z,83.8
2019-02-06T00:11:36.775Z,82.5
2019-02-06T00:12:36.803Z,82.5
2019-02-06T00:13:36.931Z,82.1
2019-02-06T00:14:37.015Z,81.8
2019-02-06T00:15:37.150Z,81.5
2019-02-06T00:16:38.192Z,81.8
2019-02-06T00:17:38.303Z,81.9
2019-02-06T00:18:38.356Z,81.2
2019-02-06T00:19:38.414Z,80.9
2019-02-06T00:20:38.332Z,80.9
2019-02-06T00:21:38.268Z,81.2
2019-02-06T00:22:38.997Z,81.7
2019-02-06T00:23:39.405Z,81.2
2019-02-06T00:24:39.343Z,81.5
2019-02-06T00:25:39.273Z,81.2
2019-02-06T00:26:39.660Z,82.3
2019-02-06T00:27:39.598Z,82.4
2019-02-06T00:28:39.544Z,81.3
2019-02-06T00:29:39.488Z,81
2019-02-06T00:30:40.478Z,80.9
2019-02-06T00:31:41.065Z,81.3
2019-02-06T00:32:41.003Z,81.2
2019-02-06T00:33:40.931Z,80
2019-02-06T00:34:40.866Z,80.2
2019-02-06T00:35:40.793Z,80.5
2019-02-06T00:36:41.149Z,80
2019-02-06T00:37:41.063Z,81.4
2019-02-06T00:38:41.796Z,82
2019-02-06T00:39:42.395Z,82.4
2019-02-06T00:40:42.323Z,82.1
2019-02-06T00:41:42.238Z,81.6
2019-02-06T00:42:42.153Z,80.8
2019-02-06T00:43:42.069Z,80.8
2019-02-06T00:44:41.991Z,81.3
2019-02-06T00:45:41.930Z,81.8
2019-02-06T00:56:41.505Z,79.1
2019-02-06T00:57:41.437Z,79.7
2019-02-06T00:58:41.347Z,80.2
2019-02-06T00:59:41.265Z,81.1
2019-02-06T01:00:41.282Z,80.6
2019-02-06T01:01:41.969Z,80
2019-02-06T01:02:42.365Z,80.5
2019-02-06T01:03:42.295Z,79.8
2019-02-06T01:04:42.239Z,79.9
2019-02-06T01:05:42.153Z,79.8
2019-02-06T01:06:43.960Z,79.5
2019-02-06T01:07:44.021Z,79.7
2019-02-06T01:08:43.927Z,79.7
2019-02-06T01:09:44.859Z,80.1
2019-02-06T01:10:45.517Z,83.2
2019-02-06T01:11:45.463Z,84.8
2019-02-06T01:12:45.395Z,84.8
2019-02-06T01:13:45.314Z,83.8
2019-02-06T01:14:45.243Z,82.9
2019-02-06T01:15:45.157Z,86.3
2019-02-06T01:16:45.557Z,87.4
2019-02-06T01:17:46.429Z,88
2019-02-06T01:18:47.372Z,87.8
2019-02-06T01:19:47.396Z,88.7
2019-02-06T01:20:47.311Z,87.2
2019-02-06T01:21:47.259Z,87
2019-02-06T01:22:47.177Z,85.1
2019-02-06T01:23:47.085Z,84.3
2019-02-06T01:24:47.171Z,83.1
2019-02-06T01:25:47.081Z,82.2
2019-02-06T01:26:47.463Z,81.4
2019-02-06T01:27:47.406Z,81.4
2019-02-06T01:28:47.449Z,80.4
2019-02-06T01:29:47.382Z,80.5
2019-02-06T01:30:47.315Z,80.6
2019-02-06T01:31:47.339Z,80.3
2019-02-06T01:32:48.290Z,80.5
2019-02-06T01:33:49.151Z,80.8
2019-02-06T01:34:49.061Z,80.7
2019-02-06T01:35:50.966Z,80.8
2019-02-06T01:36:51.346Z,80.5
2019-02-06T01:37:51.265Z,80.5
2019-02-06T01:38:51.267Z,80.2
2019-02-06T01:39:51.179Z,82.2
2019-02-06T01:40:52.238Z,84.9
2019-02-06T01:41:52.839Z,85.3
2019-02-06T01:42:52.753Z,88.1
2019-02-06T01:43:52.669Z,88.9
2019-02-06T01:44:52.598Z,88.9
2019-02-06T01:45:52.535Z,87.9
2019-02-06T01:46:52.969Z,85.6
2019-02-06T01:47:52.908Z,85.1
2019-02-06T01:48:53.615Z,84.2
2019-02-06T01:49:54.571Z,84.5
2019-02-06T01:50:54.491Z,83.9
2019-02-06T01:51:54.423Z,83.4
2019-02-06T01:52:54.353Z,82.2
2019-02-06T01:53:54.292Z,81.8
2019-02-06T01:54:54.212Z,81.5
2019-02-06T01:55:54.389Z,81.9
2019-02-06T01:56:54.777Z,82.8
2019-02-06T01:57:54.699Z,81.6
2019-02-06T01:58:54.629Z,81.5
2019-02-06T01:59:54.560Z,82.1
2019-02-06T02:00:54.505Z,82.1
2019-02-06T02:01:54.436Z,81.9
2019-02-06T02:02:54.369Z,82
2019-02-06T02:03:55.285Z,81.1
2019-02-06T02:04:56.139Z,80.7
2019-02-06T02:06:03.403Z,80.7
2019-02-06T02:07:03.796Z,80.2
2019-02-06T02:08:03.750Z,80.5
2019-02-06T02:09:03.897Z,81.2
2019-02-06T02:10:03.832Z,81.5
2019-02-06T02:11:03.768Z,81.2
2019-02-06T02:12:03.714Z,81.7
2019-02-06T02:13:03.635Z,82.5
2019-02-06T02:14:03.579Z,81.7
2019-02-06T02:15:03.487Z,81.7
2019-02-06T02:16:03.417Z,82
2019-02-06T02:17:05.041Z,82.4
2019-02-06T02:18:04.959Z,82.6
2019-02-06T02:19:04.894Z,83.1
2019-02-06T02:20:05.420Z,83.6
2019-02-06T02:21:05.360Z,83.6
2019-02-06T02:22:05.275Z,83.6
2019-02-06T02:23:05.237Z,84.6
2019-02-06T02:24:05.162Z,85.2
2019-02-06T02:25:05.075Z,84.5
2019-02-06T02:26:04.998Z,83.2
2019-02-06T02:27:05.357Z,82.5
2019-02-06T02:28:06.190Z,83.4
2019-02-06T02:29:06.730Z,82.8
2019-02-06T02:30:06.691Z,82.6
2019-02-06T02:31:06.626Z,82.9
2019-02-06T02:32:06.565Z,82.9
2019-02-06T02:33:06.508Z,82.2
2019-02-06T02:34:06.447Z,82.3
2019-02-06T02:35:06.376Z,81.7
2019-02-06T02:36:17.182Z,80.8
2019-02-06T03:07:29.452Z,76.2
2019-02-06T03:08:29.408Z,77.2
2019-02-06T03:09:29.896Z,77.5
2019-02-06T03:10:29.958Z,78.2
2019-02-06T03:11:29.910Z,78
2019-02-06T03:12:29.847Z,77.8
2019-02-06T03:13:29.767Z,77.8
2019-02-06T03:14:29.718Z,77.8
2019-02-06T03:15:29.825Z,78.9
2019-02-06T03:16:29.789Z,79.7
2019-02-06T03:17:33.774Z,78.5
2019-02-06T03:18:33.722Z,78.9
2019-02-06T03:19:33.739Z,80.6
2019-02-06T03:20:33.683Z,82
2019-02-06T03:21:33.724Z,79.9
2019-02-06T03:22:33.852Z,80.9
2019-02-06T03:23:33.780Z,80.3
2019-02-06T03:24:33.705Z,80.6
2019-02-06T03:25:34.273Z,79.9
2019-02-06T03:26:34.864Z,80.1
2019-02-06T03:27:35.241Z,80.5
2019-02-06T03:28:35.178Z,80.8
2019-02-06T03:29:35.121Z,80.7
2019-02-06T03:30:35.076Z,81.4
2019-02-06T03:31:35.088Z,80.4
2019-02-06T03:32:35.079Z,81.2
2019-02-06T03:33:36.177Z,80.5
2019-02-06T03:34:36.878Z,80.3
2019-02-06T03:35:36.815Z,80.7
2019-02-06T03:36:41.518Z,80.5
2019-02-06T03:37:41.930Z,81.4
2019-02-06T03:38:41.857Z,82.2
2019-02-06T03:39:41.778Z,81.6
2019-02-06T03:40:41.702Z,81.2
2019-02-06T03:41:42.358Z,81.8
2019-02-06T03:42:42.881Z,82.3
2019-02-06T03:43:42.829Z,82.9
2019-02-06T03:44:42.754Z,82.4
2019-02-06T03:45:42.679Z,82.2
2019-02-06T03:46:42.592Z,82.5
2019-02-06T03:47:42.976Z,82.9
2019-02-06T03:48:42.914Z,83
2019-02-06T03:49:44.483Z,82.5
2019-02-06T03:50:44.942Z,83
2019-02-06T03:51:44.864Z,82.6
2019-02-06T03:52:44.841Z,82.6
2019-02-06T03:53:44.771Z,82.3
2019-02-06T03:54:44.721Z,82
2019-02-06T03:55:44.659Z,82.4
2019-02-06T03:56:44.573Z,83
2019-02-06T03:57:46.212Z,82.1
2019-02-06T03:58:47.131Z,82
2019-02-06T03:59:47.072Z,81.8
2019-02-06T04:00:47.006Z,81.6
2019-02-06T04:01:47.018Z,81.2
2019-02-06T04:02:46.990Z,82.1
2019-02-06T04:03:46.932Z,83.1
2019-02-06T04:04:46.848Z,82.6
2019-02-06T04:05:46.758Z,81.7
2019-02-06T04:07:03.151Z,81.5
2019-02-06T04:08:04.356Z,82.5
2019-02-06T04:09:04.274Z,82
2019-02-06T04:10:04.244Z,81.6
2019-02-06T04:11:04.181Z,81.6
2019-02-06T04:12:04.103Z,81.8
2019-02-06T04:13:04.054Z,81.6
2019-02-06T04:14:04.037Z,83.3
2019-02-06T04:15:04.909Z,82.8
2019-02-06T04:16:05.777Z,83.7
2019-02-06T04:17:05.713Z,83.2
2019-02-06T04:18:06.127Z,83
2019-02-06T04:19:06.118Z,84.6
2019-02-06T04:20:06.081Z,84.7
2019-02-06T04:21:06.044Z,84.5
2019-02-06T04:22:05.964Z,83.8
2019-02-06T04:23:06.793Z,83.5
2019-02-06T04:24:07.447Z,83.6
2019-02-06T04:25:07.381Z,84.1
2019-02-06T04:26:07.312Z,83.8
2019-02-06T04:27:07.247Z,82.7
2019-02-06T04:28:08.249Z,82.2
2019-02-06T04:29:08.170Z,82.2
2019-02-06T04:30:08.082Z,82.9
2019-02-06T04:31:08.748Z,83.3
2019-02-06T04:32:09.437Z,81.8
2019-02-06T04:33:09.377Z,81.7
2019-02-06T04:34:09.342Z,81.1
2019-02-06T04:35:09.299Z,80.9
2019-02-06T04:36:09.224Z,81.6
2019-02-06T04:37:09.164Z,81.4
2019-02-06T04:38:09.585Z,81.6
2019-02-06T04:39:10.611Z,82.5
2019-02-06T04:40:11.640Z,82.9
2019-02-06T04:41:11.564Z,83.2
2019-02-06T04:42:11.496Z,83.4
2019-02-06T04:43:11.437Z,82.8
2019-02-06T04:44:11.375Z,82.1
2019-02-06T04:45:11.295Z,81.4
2019-02-06T04:46:11.471Z,83.8
2019-02-06T04:47:11.641Z,85.6
2019-02-06T04:48:13.277Z,85.3
2019-02-06T04:49:13.223Z,85.4
2019-02-06T04:50:13.149Z,85.7
2019-02-06T04:51:13.088Z,86.2
2019-02-06T04:52:13.103Z,86.2
2019-02-06T04:53:13.038Z,86
2019-02-06T04:54:13.613Z,85.2
2019-02-06T04:55:13.538Z,84.7
2019-02-06T04:56:13.617Z,84.2
2019-02-06T04:57:13.538Z,83.3
2019-02-06T04:58:13.972Z,83.4
2019-02-06T04:59:16.838Z,83.7
2019-02-06T05:00:16.830Z,83.6
2019-02-06T05:01:16.809Z,83
2019-02-06T05:02:17.211Z,82.7
2019-02-06T05:03:17.170Z,82
2019-02-06T05:04:17.145Z,81.7
2019-02-06T05:05:17.039Z,81.8
2019-02-06T05:06:16.989Z,82.3
2019-02-06T05:07:20.327Z,83.2
2019-02-06T05:18:20.908Z,83.6
2019-02-06T05:19:21.912Z,84.7
2019-02-06T05:20:21.973Z,85.1
2019-02-06T05:21:21.916Z,85.8
2019-02-06T05:22:21.860Z,85.7
2019-02-06T05:23:21.790Z,83.9
2019-02-06T05:24:21.715Z,82.7
2019-02-06T05:25:21.646Z,82.7
2019-02-06T05:26:21.571Z,82.8
2019-02-06T05:27:21.585Z,82.3
2019-02-06T05:28:21.990Z,83.3
2019-02-06T05:29:21.946Z,84.3
2019-02-06T05:30:21.886Z,84.7
2019-02-06T05:31:21.849Z,84.1
2019-02-06T05:32:21.823Z,83.7
2019-02-06T05:33:22.619Z,84.2
2019-02-06T05:34:22.996Z,85.6
2019-02-06T05:35:22.923Z,86.3
2019-02-06T05:36:22.877Z,85.2
2019-02-06T05:37:33.035Z,84.6
2019-02-06T05:38:33.496Z,83.8
2019-02-06T05:39:33.502Z,82.8
2019-02-06T05:40:33.522Z,82.7
2019-02-06T05:41:33.454Z,81.8
2019-02-06T05:42:34.073Z,82.5
2019-02-06T05:43:34.870Z,84.3
2019-02-06T05:44:34.807Z,83.1
2019-02-06T05:45:34.750Z,83.5
2019-02-06T05:46:34.692Z,84.2
2019-02-06T05:47:34.613Z,83.5
2019-02-06T05:48:35.075Z,83.3
2019-02-06T05:49:35.011Z,83.2
2019-02-06T05:50:34.978Z,83.1
2019-02-06T05:51:34.909Z,82.3
2019-02-06T05:52:34.900Z,82.1
2019-02-06T05:53:34.824Z,82.6
2019-02-06T05:54:34.753Z,84.1
2019-02-06T05:55:34.758Z,82.5
2019-02-06T05:56:34.712Z,82.5
2019-02-06T05:57:35.656Z,82.1
2019-02-06T05:58:37.000Z,83
2019-02-06T05:59:37.034Z,82.3
2019-02-06T06:00:36.996Z,82.5
2019-02-06T06:01:36.928Z,82.6
2019-02-06T06:02:36.887Z,80.8
2019-02-06T06:03:36.819Z,81.6
2019-02-06T06:04:36.912Z,80.5
2019-02-06T06:05:37.188Z,81.4
2019-02-06T06:06:38.202Z,81.2
2019-02-06T06:07:46.324Z,82.4
2019-02-06T06:08:46.736Z,82.8
2019-02-06T06:09:46.668Z,82.4
2019-02-06T06:10:46.610Z,82.5
2019-02-06T06:11:46.539Z,83.6
2019-02-06T06:12:46.490Z,84.1
2019-02-06T06:13:47.232Z,83.5
2019-02-06T06:14:47.615Z,83.1
2019-02-06T06:15:47.575Z,82.7
2019-02-06T06:16:47.610Z,82.5
2019-02-06T06:17:47.555Z,82
2019-02-06T06:18:48.020Z,81.2
2019-02-06T06:19:47.964Z,81
2019-02-06T06:20:47.972Z,80.7
2019-02-06T06:21:48.866Z,81.1
2019-02-06T06:22:49.848Z,81.7
2019-02-06T06:23:49.808Z,82.1
2019-02-06T06:24:49.794Z,82.4
2019-02-06T06:25:49.760Z,82.9
2019-02-06T06:26:49.698Z,83
2019-02-06T06:27:49.666Z,83.3
2019-02-06T06:28:50.312Z,83.2
2019-02-06T06:29:50.260Z,83.4
2019-02-06T06:30:50.179Z,83.6
2019-02-06T06:31:50.284Z,83
2019-02-06T06:32:50.350Z,82.7
2019-02-06T06:33:52.702Z,83.2
2019-02-06T06:34:52.617Z,82.5
2019-02-06T06:35:52.581Z,83
2019-02-06T06:36:53.028Z,82.4
2019-02-06T06:38:03.534Z,81.9
2019-02-06T06:39:04.203Z,82.7
2019-02-06T06:40:04.168Z,83.3
2019-02-06T06:41:04.112Z,82.8
2019-02-06T06:42:04.049Z,83
2019-02-06T06:43:03.982Z,82.1
2019-02-06T06:44:03.925Z,82.3
2019-02-06T06:45:03.889Z,81.2
2019-02-06T06:46:04.556Z,81
2019-02-06T06:47:04.996Z,81.5
2019-02-06T06:48:04.923Z,81
2019-02-06T06:49:05.441Z,79.1
2019-02-06T06:50:05.397Z,80.4
2019-02-06T06:51:05.343Z,82.2
2019-02-06T06:52:05.289Z,82.3
2019-02-06T06:53:05.235Z,82
2019-02-06T06:54:06.091Z,82.3
2019-02-06T06:55:06.808Z,82.7
2019-02-06T06:56:06.818Z,82.5
2019-02-06T06:57:06.771Z,82.3
2019-02-06T06:58:06.812Z,82.5
2019-02-06T06:59:09.973Z,82.7
2019-02-06T07:00:10.017Z,82.1
2019-02-06T07:01:11.774Z,81.8
2019-02-06T07:02:12.326Z,81.7
2019-02-06T07:03:12.395Z,81
2019-02-06T07:04:12.325Z,80.1
2019-02-06T07:05:12.274Z,79.4
2019-02-06T07:06:12.229Z,80.3
2019-02-06T07:07:12.202Z,80.5
2019-02-06T07:08:14.181Z,80.8
2019-02-06T07:09:14.559Z,81
2019-02-06T07:10:15.433Z,81.1
2019-02-06T07:11:15.514Z,81
2019-02-06T07:12:15.462Z,80.8
2019-02-06T07:13:15.400Z,80
2019-02-06T07:14:15.315Z,80.4
2019-02-06T07:15:15.210Z,80.8
2019-02-06T07:16:15.120Z,81
2019-02-06T07:17:15.078Z,80.2
2019-02-06T07:18:15.896Z,79.9
2019-02-06T07:19:17.115Z,80.6
2019-02-06T07:20:17.057Z,81.7
2019-02-06T07:21:16.994Z,81.7
2019-02-06T07:22:16.927Z,81.3
2019-02-06T07:23:16.879Z,81
2019-02-06T07:24:16.811Z,81
2019-02-06T07:25:16.728Z,81.1
2019-02-06T07:26:17.557Z,81.1
2019-02-06T07:27:21.206Z,80.6
2019-02-06T07:28:21.243Z,80
2019-02-06T07:29:21.739Z,79.6
2019-02-06T07:30:21.649Z,79.4
2019-02-06T07:31:21.573Z,79.2
2019-02-06T07:32:21.496Z,79.1
2019-02-06T07:33:21.399Z,79.5
2019-02-06T07:34:22.109Z,80.1
2019-02-06T07:35:22.597Z,79.2
2019-02-06T07:36:22.547Z,79.4
2019-02-06T07:37:22.559Z,79.3
2019-02-06T07:38:25.174Z,79.3
2019-02-06T07:39:26.669Z,78.7
2019-02-06T07:40:26.610Z,80.1
2019-02-06T07:41:26.545Z,81.2
2019-02-06T07:42:27.386Z,80.9
2019-02-06T07:43:28.209Z,82.2
2019-02-06T07:44:28.155Z,83.5
2019-02-06T07:45:28.080Z,84
2019-02-06T07:46:28.029Z,84.1
2019-02-06T07:47:27.969Z,83.5
2019-02-06T07:48:27.887Z,83.3
2019-02-06T07:49:28.286Z,82.8
2019-02-06T07:50:29.231Z,82.3
2019-02-06T07:51:30.115Z,82.2
2019-02-06T07:52:30.013Z,82.5
2019-02-06T07:53:29.947Z,82.6
2019-02-06T07:54:29.899Z,82.5
2019-02-06T07:55:29.847Z,82
2019-02-06T07:56:29.756Z,82.2
2019-02-06T07:57:29.691Z,82.3
2019-02-06T07:58:30.601Z,82.3
2019-02-06T07:59:32.247Z,82.1
2019-02-06T08:00:32.189Z,81.7
2019-02-06T08:01:32.101Z,81.5
2019-02-06T08:02:32.069Z,81.8
2019-02-06T08:03:31.988Z,81.3
2019-02-06T08:04:31.937Z,80.8
2019-02-06T08:05:31.919Z,80.8
2019-02-06T08:06:31.833Z,80.7
2019-02-06T08:07:31.777Z,80.4
2019-02-06T08:08:37.011Z,80.7
2019-02-06T08:09:37.375Z,80.6
2019-02-06T08:10:37.339Z,80.9
2019-02-06T08:11:37.335Z,80.8
2019-02-06T08:12:37.265Z,79.5
2019-02-06T08:13:37.206Z,79
2019-02-06T08:14:37.965Z,78.7
2019-02-06T08:15:38.867Z,78.3
2019-02-06T08:16:38.796Z,77.9
2019-02-06T08:17:38.737Z,77.6
2019-02-06T08:18:38.699Z,77.9
2019-02-06T08:19:39.090Z,78.6
2019-02-06T08:20:39.061Z,78
2019-02-06T08:21:38.989Z,77.9
2019-02-06T08:22:38.916Z,77
2019-02-06T08:23:39.015Z,76.8
2019-02-06T08:24:38.947Z,77.2
2019-02-06T08:25:38.881Z,77.2
2019-02-06T08:26:38.923Z,76.9
2019-02-06T08:27:38.820Z,76.6
2019-02-06T08:28:38.843Z,76.9
2019-02-06T08:29:39.967Z,77
2019-02-06T08:30:40.447Z,76.7
2019-02-06T08:31:40.417Z,76.1
2019-02-06T08:32:40.339Z,76.3
2019-02-06T08:33:40.283Z,76
2019-02-06T08:34:40.221Z,75.6
2019-02-06T08:35:40.163Z,75.6
2019-02-06T08:36:40.125Z,75.6
2019-02-06T08:37:40.875Z,75.2
2019-02-06T08:38:51.112Z,75.4
2019-02-06T08:39:51.771Z,75.7
2019-02-06T08:40:51.683Z,75.3
2019-02-06T08:41:51.713Z,75.5
2019-02-06T08:42:51.633Z,75.5
2019-02-06T08:43:51.590Z,75.6
2019-02-06T08:44:51.522Z,75.6
2019-02-06T08:45:51.477Z,75
2019-02-06T08:46:52.286Z,74.8
2019-02-06T08:47:52.815Z,74.8
2019-02-06T08:48:52.766Z,75
2019-02-06T08:49:53.163Z,74.5
2019-02-06T08:50:53.115Z,73.7
2019-02-06T08:51:53.113Z,73.4
2019-02-06T08:52:53.038Z,73.9
2019-02-06T08:53:52.979Z,74.2
2019-02-06T08:54:53.756Z,74
2019-02-06T08:55:54.830Z,73.8
2019-02-06T08:56:54.756Z,73.8
2019-02-06T08:57:54.697Z,73.7
2019-02-06T08:58:54.626Z,73.6
2019-02-06T08:59:55.018Z,73.7
2019-02-06T09:00:54.951Z,73.7
2019-02-06T09:01:54.884Z,73.4
2019-02-06T09:02:54.832Z,73.1
2019-02-06T09:03:54.754Z,73
2019-02-06T09:04:56.698Z,73.2
2019-02-06T09:05:56.624Z,72.7
2019-02-06T09:06:56.582Z,73.2
2019-02-06T09:07:56.607Z,73.1
2019-02-06T09:09:00.712Z,73.1
2019-02-06T09:10:01.102Z,72
2019-02-06T09:11:01.967Z,73.2
2019-02-06T09:12:02.776Z,72.9
2019-02-06T09:13:02.766Z,72.1
2019-02-06T09:14:02.736Z,71.5
2019-02-06T09:15:02.667Z,71.5
2019-02-06T09:16:02.580Z,71.4
2019-02-06T09:17:02.526Z,71.5
2019-02-06T09:18:02.456Z,71.6
2019-02-06T09:19:03.454Z,71.4
2019-02-06T09:20:05.262Z,70.7
2019-02-06T09:21:05.189Z,72.3
2019-02-06T09:22:05.168Z,73.2
2019-02-06T09:23:05.115Z,72.7
2019-02-06T09:24:05.066Z,72.5
2019-02-06T09:25:05.002Z,73.1
2019-02-06T09:26:04.945Z,73.3
2019-02-06T09:27:04.854Z,73.9
2019-02-06T09:28:04.813Z,73
2019-02-06T09:29:04.738Z,73.8
2019-02-06T09:30:05.098Z,74.1
2019-02-06T09:31:05.024Z,74.5
2019-02-06T09:32:04.951Z,73.9
2019-02-06T09:33:04.958Z,74
2019-02-06T09:34:05.726Z,73.9
2019-02-06T09:35:07.366Z,74.1
2019-02-06T09:36:07.290Z,75.3
2019-02-06T09:37:07.216Z,74.5
2019-02-06T09:38:07.188Z,75
2019-02-06T09:39:12.746Z,74.9
2019-02-06T09:40:13.136Z,74.4
2019-02-06T09:41:13.057Z,74.2
2019-02-06T09:42:13.188Z,73.3
2019-02-06T09:43:13.172Z,73.2
2019-02-06T09:44:13.110Z,73.4
2019-02-06T09:45:13.022Z,73.7
2019-02-06T09:46:12.963Z,73.5
2019-02-06T09:47:12.909Z,73.3
2019-02-06T09:48:12.853Z,74.2
2019-02-06T09:49:15.767Z,74.6
2019-02-06T09:50:16.918Z,73.9
2019-02-06T09:51:20.744Z,74.3
2019-02-06T09:52:21.682Z,75
2019-02-06T09:55:21.154Z,73
2019-02-06T10:00:20.812Z,72.1
2019-02-06T10:01:22.365Z,73.2
2019-02-06T10:02:22.325Z,73.2
2019-02-06T10:03:22.230Z,72.7
2019-02-06T10:04:22.177Z,72.7
2019-02-06T10:05:22.130Z,72.4
2019-02-06T10:06:22.742Z,73.7
2019-02-06T10:07:23.271Z,72.8
2019-02-06T10:08:23.179Z,71.7
2019-02-06T10:09:23.921Z,73.2
2019-02-06T10:10:24.354Z,72.7
2019-02-06T10:11:24.277Z,72.6
2019-02-06T10:12:24.337Z,72.9
2019-02-06T10:13:24.295Z,73.5
2019-02-06T10:14:25.192Z,73.2
2019-02-06T10:15:25.868Z,73.2
2019-02-06T10:16:25.797Z,73.5
2019-02-06T10:17:26.011Z,73.1
2019-02-06T10:18:25.924Z,72.7
2019-02-06T10:19:25.877Z,72.8
2019-02-06T10:20:26.283Z,74.1
2019-02-06T10:21:26.186Z,73.6
2019-02-06T10:22:27.033Z,73.5
2019-02-06T10:23:27.924Z,72.6
2019-02-06T10:25:27.680Z,71.5
2019-02-06T10:28:27.166Z,70.9
2019-02-06T10:29:27.191Z,70.9
2019-02-06T10:30:28.542Z,71.1
2019-02-06T10:31:29.425Z,72
2019-02-06T10:32:29.359Z,72.1
2019-02-06T10:33:29.298Z,72.4
2019-02-06T10:34:29.255Z,71.8
2019-02-06T10:35:29.163Z,71.7
2019-02-06T10:36:29.090Z,71.6
2019-02-06T10:37:29.970Z,72.5
2019-02-06T10:38:29.940Z,72.4
2019-02-06T10:39:35.467Z,72.1
2019-02-06T10:40:35.870Z,71.8
2019-02-06T10:41:35.811Z,71.4
2019-02-06T10:42:35.727Z,72
2019-02-06T10:43:36.705Z,71.9
2019-02-06T10:44:36.630Z,72.2
2019-02-06T10:45:36.587Z,72.8
2019-02-06T10:46:37.284Z,72.8
2019-02-06T10:47:37.915Z,72.7
2019-02-06T10:48:37.847Z,73.5
2019-02-06T10:49:37.807Z,73.5
2019-02-06T10:50:38.203Z,73.6
2019-02-06T10:51:38.133Z,73.9
2019-02-06T10:52:38.083Z,73.3
2019-02-06T10:53:38.049Z,72.8
2019-02-06T10:54:38.867Z,73.4
2019-02-06T10:55:39.578Z,73.6
2019-02-06T10:56:39.499Z,73.7
2019-02-06T10:57:39.453Z,74.1
2019-02-06T10:58:39.385Z,74
2019-02-06T10:59:39.356Z,74
2019-02-06T11:00:39.758Z,74.3
2019-02-06T11:01:39.785Z,74
2019-02-06T11:02:39.711Z,74
2019-02-06T11:03:39.875Z,74
2019-02-06T11:04:39.811Z,74.1
2019-02-06T11:05:39.767Z,74.3
2019-02-06T11:06:39.713Z,74
2019-02-06T11:07:39.613Z,74
2019-02-06T11:08:39.539Z,74.6
2019-02-06T11:09:47.212Z,74.4
2019-02-06T11:10:48.695Z,74
2019-02-06T11:11:49.523Z,74
2019-02-06T11:12:49.460Z,74.2
2019-02-06T11:13:50.625Z,74.4
2019-02-06T11:14:50.588Z,74.4
2019-02-06T11:15:50.526Z,74.1
2019-02-06T11:16:50.472Z,74.2
2019-02-06T11:17:50.480Z,74.3
2019-02-06T11:18:51.488Z,74.5
2019-02-06T11:19:52.219Z,74.5
2019-02-06T11:20:52.646Z,74.4
2019-02-06T11:21:52.570Z,74.4
2019-02-06T11:22:52.512Z,74.2
2019-02-06T11:23:52.436Z,74.3
2019-02-06T11:24:52.362Z,74.3
2019-02-06T11:25:52.343Z,74.2
2019-02-06T11:26:53.131Z,74.2
2019-02-06T11:27:53.977Z,73.8
2019-02-06T11:28:53.976Z,74.1
2019-02-06T11:29:53.904Z,74.1
2019-02-06T11:30:57.656Z,73.2
2019-02-06T11:31:57.601Z,73.4
2019-02-06T11:33:57.296Z,73.3
2019-02-06T11:34:58.177Z,73.6
2019-02-06T11:36:00.108Z,73.1
2019-02-06T11:37:00.058Z,72.5
2019-02-06T11:38:00.018Z,72.1
2019-02-06T11:38:59.949Z,72.1
2019-02-06T11:41:00.126Z,72.7
2019-02-06T11:42:00.077Z,73.5
2019-02-06T11:43:00.922Z,73.4
2019-02-06T11:44:01.706Z,73.1
2019-02-06T11:45:01.620Z,73
2019-02-06T11:46:01.562Z,72.7
2019-02-06T11:47:01.515Z,72.6
2019-02-06T11:48:01.443Z,73.2
2019-02-06T11:49:01.399Z,73.2
2019-02-06T11:50:01.327Z,73.8
2019-02-06T11:51:02.776Z,73.9
2019-02-06T11:52:03.724Z,73.8
2019-02-06T11:53:03.815Z,73.2
2019-02-06T11:54:06.057Z,73.8
2019-02-06T11:55:09.088Z,73.8
2019-02-06T11:56:09.020Z,74.1
2019-02-06T11:57:08.986Z,73.6
2019-02-06T11:58:08.920Z,73.4
2019-02-06T11:59:09.385Z,73.8
2019-02-06T12:00:09.400Z,74.1
2019-02-06T12:01:09.816Z,73.9
2019-02-06T12:02:09.860Z,74.1
2019-02-06T12:03:09.774Z,73.5
2019-02-06T12:04:09.698Z,73.6
2019-02-06T12:05:09.618Z,73.3
2019-02-06T12:06:09.552Z,73.6
2019-02-06T12:07:10.350Z,73.2
2019-02-06T12:08:13.389Z,73.1
2019-02-06T12:09:13.340Z,73.8
2019-02-06T12:10:13.278Z,74
2019-02-06T12:11:13.652Z,74.1
2019-02-06T12:12:13.578Z,73.8
2019-02-06T12:13:13.514Z,74.1
2019-02-06T12:14:13.458Z,74.1
2019-02-06T12:15:14.157Z,74.4
2019-02-06T12:16:15.111Z,73.9
2019-02-06T12:17:15.130Z,74
2019-02-06T12:18:15.167Z,74.3
2019-02-06T12:19:15.100Z,74.6
2019-02-06T12:20:15.011Z,74.4
2019-02-06T12:21:18.721Z,74.3
2019-02-06T12:22:18.634Z,74
2019-02-06T12:23:32.042Z,75
2019-02-06T12:24:32.558Z,74.7
2019-02-06T12:25:36.185Z,74.8
2019-02-06T12:26:37.125Z,74.8
2019-02-06T12:27:37.084Z,74.9
2019-02-06T12:28:37.019Z,75
2019-02-06T12:29:36.944Z,75.4
2019-02-06T12:30:36.852Z,75.9
2019-02-06T12:31:37.212Z,76.4
2019-02-06T12:32:37.144Z,76.4
2019-02-06T12:33:37.506Z,76
2019-02-06T12:34:37.421Z,76.1
2019-02-06T12:35:37.342Z,76.1
2019-02-06T12:36:37.250Z,76.1
2019-02-06T12:37:37.211Z,76
2019-02-06T12:38:37.158Z,76.1
2019-02-06T12:39:37.114Z,75.9
2019-02-06T12:40:38.041Z,76
2019-02-06T12:41:39.548Z,76.2
2019-02-06T12:42:39.502Z,76.3
2019-02-06T12:43:39.419Z,76.3
2019-02-06T12:44:39.333Z,76.2
2019-02-06T12:45:39.272Z,75.5
2019-02-06T12:46:39.203Z,75.3
2019-02-06T12:48:39.102Z,74.5
2019-02-06T12:49:39.025Z,74.3
2019-02-06T12:50:39.020Z,74
2019-02-06T12:51:40.556Z,74
2019-02-06T12:52:40.493Z,74.6
2019-02-06T12:53:40.548Z,74.1
2019-02-06T12:54:41.280Z,74.3
2019-02-06T12:55:41.784Z,74.3
2019-02-06T12:56:41.747Z,74.5
2019-02-06T12:57:41.699Z,75
2019-02-06T12:58:41.703Z,75.3
2019-02-06T12:59:41.674Z,75.4
2019-02-06T13:00:41.631Z,75.3
2019-02-06T13:01:42.024Z,75.7
2019-02-06T13:02:42.857Z,75.6
2019-02-06T13:03:43.749Z,75.3
2019-02-06T13:04:43.712Z,75.3
2019-02-06T13:05:43.718Z,75.4
2019-02-06T13:06:43.680Z,75.6
2019-02-06T13:07:43.616Z,75.7
2019-02-06T13:08:43.568Z,75.7
2019-02-06T13:09:43.492Z,75.9
2019-02-06T13:10:43.423Z,76
2019-02-06T13:11:43.814Z,76.2
2019-02-06T13:12:43.750Z,76.2
2019-02-06T13:13:46.137Z,76.1
2019-02-06T13:14:46.070Z,76.2
2019-02-06T13:15:48.102Z,76.3
2019-02-06T13:16:48.050Z,76.4
2019-02-06T13:17:48.075Z,76.3
2019-02-06T13:18:48.312Z,76
2019-02-06T13:19:49.101Z,75.8
2019-02-06T13:20:52.215Z,75.8
2019-02-06T13:21:52.609Z,75.6
2019-02-06T13:22:52.524Z,75.8
2019-02-06T13:23:52.464Z,75.8
2019-02-06T13:24:52.378Z,76.5
2019-02-06T13:25:52.304Z,76.5
2019-02-06T13:26:53.114Z,76.5
2019-02-06T13:27:54.082Z,76.7
2019-02-06T13:28:54.032Z,76.9
2019-02-06T13:29:53.971Z,76.9
2019-02-06T13:30:53.906Z,77
2019-02-06T13:31:54.278Z,77.1
2019-02-06T13:32:54.316Z,76.9
2019-02-06T13:33:54.269Z,76.8
2019-02-06T13:34:54.856Z,76.8
2019-02-06T13:35:55.983Z,77
2019-02-06T13:36:55.906Z,76.1
2019-02-06T13:37:55.843Z,76.1
2019-02-06T13:38:55.889Z,76
2019-02-06T13:39:55.848Z,76.3
2019-02-06T13:40:55.838Z,76.5
2019-02-06T13:41:56.329Z,76.9
2019-02-06T13:42:56.398Z,76.8
2019-02-06T13:43:57.525Z,77.8
2019-02-06T13:44:57.449Z,77.1
2019-02-06T13:45:57.370Z,77.3
2019-02-06T13:46:57.280Z,77.6
2019-02-06T13:47:57.220Z,77.7
2019-02-06T13:48:57.158Z,77.7
2019-02-06T13:49:57.624Z,78
2019-02-06T13:50:57.665Z,78.2
2019-02-06T13:51:58.551Z,78.1
2019-02-06T13:52:58.577Z,78.1
2019-02-06T13:53:58.497Z,78.1
2019-02-06T13:54:58.449Z,77.8
2019-02-06T13:55:58.395Z,77.9
2019-02-06T13:56:58.329Z,78
2019-02-06T13:57:59.117Z,78.1
2019-02-06T13:58:59.756Z,78.2
2019-02-06T13:59:59.705Z,78.3
2019-02-06T14:00:59.661Z,78.1
2019-02-06T14:02:00.079Z,78.1
2019-02-06T14:03:00.097Z,77.9
2019-02-06T14:04:00.126Z,77.8
2019-02-06T14:05:00.294Z,78
2019-02-06T14:06:01.186Z,78
2019-02-06T14:07:01.766Z,78.2
2019-02-06T14:08:01.707Z,78.3
2019-02-06T14:09:01.635Z,78.5
2019-02-06T14:10:01.594Z,78.6
2019-02-06T14:11:01.871Z,78.4
2019-02-06T14:12:02.392Z,78.5
2019-02-06T14:13:02.491Z,78.6
2019-02-06T14:14:03.059Z,78.7
2019-02-06T14:15:03.479Z,78.7
2019-02-06T14:16:03.445Z,78.7
2019-02-06T14:17:03.361Z,78.7
2019-02-06T14:18:03.417Z,78.8
2019-02-06T14:19:03.335Z,78.9
2019-02-06T14:20:03.297Z,78.6
2019-02-06T14:21:03.221Z,78.6
2019-02-06T14:22:04.551Z,78.3
2019-02-06T14:23:05.475Z,78.3
2019-02-06T14:24:05.531Z,78.1
2019-02-06T14:25:05.465Z,78.1
2019-02-06T14:26:05.377Z,78
2019-02-06T14:27:05.313Z,77.9
2019-02-06T14:28:05.251Z,78
2019-02-06T14:29:05.297Z,77.9
2019-02-06T14:30:06.144Z,77.8
2019-02-06T14:31:07.077Z,77.8
2019-02-06T14:32:07.508Z,77.9